FW5910 Weather Reports


time (UTC)temp
F
wind
direction
speed
knots
gust
knots
rain 1hr
in
rain 24hr
in
rain mn
in
humidity
%
barometer
mb
20220629043933 70 200 1.7 5.2 0.00 0.01 0.01 28 1012.8
20220629043433 71 240 1.7 5.2 0.00 0.01 0.01 23 1012.8
20220629042930 71 204 1.7 4.3 0.00 0.01 0.01 24 1012.8
20220629042432 71 191 0.9 2.6 0.00 0.01 0.01 23 1012.7
20220629041930 71 207 0.9 2.6 0.00 0.01 0.01 22 1012.8
20220629041431 71 208 0.9 2.6 0.00 0.01 0.01 21 1012.8
20220629040931 72 237 0.9 3.5 0.00 0.01 0.01 22 1012.8
20220629040439 73 247 0.9 7.0 0.00 0.01 0.01 17 1012.7
20220629035930 73 152 0.9 7.0 0.00 0.01 0.01 24 1012.7
20220629035432 73 144 2.6 7.0 0.00 0.01 0.01 23 1012.6
20220629034930 73 207 2.6 8.7 0.00 0.01 0.01 24 1012.6
20220629034431 73 89 1.7 8.7 0.00 0.01 0.01 21 1012.6
20220629033930 73 208 0.9 4.3 0.00 0.01 0.01 28 1012.2
20220629033432 74 201 1.7 6.1 0.00 0.01 0.01 29 1012.2
20220629032931 74 260 1.7 7.0 0.00 0.01 0.01 35 1012.4
20220629032431 74 216 1.7 7.0 0.00 0.01 0.01 33 1012.4
20220629031931 74 244 0.9 3.5 0.00 0.01 0.01 30 1012.4
20220629031435 75 176 0.0 1.7 0.00 0.01 0.01 31 1012.4
20220629030935 75 175 0.9 1.7 0.00 0.01 0.01 29 1012.5
20220629030432 75 175 0.9 1.7 0.00 0.01 0.01 27 1012.4
20220629025931 76 175 0.9 1.7 0.00 0.01 0.01 28 1012.2
20220629025432 76 68 0.9 2.6 0.00 0.01 0.01 28 1012.2
20220629024925 76 68 0.9 2.6 0.00 0.01 0.01 28 1012.1
20220629024419 76 67 0.9 1.7 0.00 0.01 0.01 29 1011.9
20220629023915 77 67 0.9 2.6 0.00 0.01 0.01 26 1012.2
20220629023407 77 71 1.7 3.5 0.00 0.01 0.01 25 1012.2
20220629022906 77 153 1.7 7.0 0.00 0.01 0.01 24 1012.4
20220629022403 77 72 2.6 7.0 0.00 0.01 0.01 23 1012.5
20220629021903 77 336 2.6 7.0 0.00 0.01 0.01 24 1012.2
20220629021403 78 250 4.3 13.0 0.00 0.01 0.01 24 1012.1
20220629020903 79 38 4.3 13.0 0.00 0.01 0.01 23 1012.5
20220629020403 80 335 3.5 10.4 0.00 0.01 0.01 14 1012.2
20220629015904 80 279 2.6 7.8 0.00 0.01 0.01 16 1011.8
20220629015403 81 248 1.7 7.0 0.00 0.01 0.01 19 1011.6
20220629014903 82 39 2.6 8.7 0.00 0.01 0.01 19 1011.2
20220629014403 83 313 1.7 8.7 0.00 0.01 0.01 20 1010.9
20220629013903 84 65 1.7 6.1 0.00 0.01 0.01 20 1010.8
20220629013405 85 140 1.7 7.8 0.00 0.01 0.01 18 1010.5
20220629012903 85 22 2.6 8.7 0.00 0.01 0.01 19 1010.4
20220629012403 85 21 2.6 8.7 0.00 0.01 0.01 18 1010.4
20220629011903 85 302 3.5 10.4 0.00 0.01 0.01 18 1010.4
20220629011403 86 312 3.5 10.4 0.00 0.01 0.01 17 1010.4
20220629010903 86 351 3.5 9.6 0.00 0.01 0.01 17 1010.4
20220629010403 86 331 2.6 9.6 0.00 0.01 0.01 16 1010.3
20220629005902 87 336 2.6 9.6 0.00 0.01 0.01 18 1010.3
20220629005403 87 26 2.6 9.6 0.00 0.01 0.01 18 1010.2
20220629004903 87 332 2.6 9.6 0.00 0.01 0.01 18 1010.1
20220629004403 87 11 3.5 15.6 0.00 0.01 0.01 20 1010.1
20220629003902 87 326 3.5 15.6 0.00 0.01 0.01 20 1010.1
20220629003404 87 0 2.6 7.8 0.00 0.01 0.01 25 1010.1
20220629002902 86 321 3.5 8.7 0.00 0.01 0.01 25 1010.0
20220629002405 86 333 2.6 8.7 0.00 0.01 0.01 24 1010.1
20220629001902 86 323 2.6 5.2 0.00 0.01 0.01 26 1010.0
20220629001404 86 345 1.7 4.3 0.00 0.01 0.01 27 1010.0
20220629000903 86 331 2.6 7.0 0.00 0.01 0.01 28 1010.1
20220629000403 86 322 2.6 10.4 0.00 0.01 0.01 26 1010.2
20220628235905 87 11 2.6 10.4 0.00 0.01 0.01 27 1010.1
20220628235402 86 313 1.7 5.2 0.00 0.01 0.01 32 1010.2
20220628234902 85 175 0.9 2.6 0.00 0.01 0.01 30 1009.8
20220628234402 85 206 1.7 4.3 0.00 0.01 0.01 31 1009.8
20220628233902 84 208 1.7 5.2 0.00 0.01 0.01 32 1009.7
20220628233407 84 190 1.7 5.2 0.00 0.01 0.01 30 1009.6
20220628232904 84 128 1.7 4.3 0.00 0.01 0.01 34 1009.5
20220628232404 84 158 1.7 4.3 0.00 0.01 0.01 33 1009.6
20220628231904 83 131 1.7 3.5 0.00 0.01 0.01 33 1009.7
20220628231404 83 136 1.7 3.5 0.00 0.01 0.01 31 1009.7
20220628230903 84 146 1.7 4.3 0.00 0.01 0.01 34 1010.0
20220628230403 85 199 1.7 4.3 0.00 0.01 0.01 32 1010.1
20220628225902 86 170 1.7 4.3 0.00 0.01 0.01 32 1010.0
20220628225403 85 200 1.7 6.1 0.00 0.01 0.01 31 1010.1
20220628224902 85 158 1.7 6.1 0.00 0.01 0.01 31 1010.1
20220628224403 85 131 2.6 4.3 0.00 0.01 0.01 30 1010.2
20220628223902 84 199 1.7 4.3 0.01 0.01 0.01 29 1010.1
20220628223402 83 207 1.7 4.3 0.01 0.01 0.01 35 1010.4
20220628222902 82 200 1.7 4.3 0.01 0.01 0.01 36 1010.4
20220628222402 81 169 2.6 4.3 0.01 0.01 0.01 40 1010.4
20220628221902 80 189 2.6 5.2 0.01 0.01 0.01 43 1010.5
20220628221404 79 189 2.6 5.2 0.01 0.01 0.01 42 1010.5
20220628220903 78 205 2.6 5.2 0.01 0.01 0.01 47 1010.7
20220628220403 77 212 2.6 6.1 0.01 0.01 0.01 50 1010.6
20220628215902 76 146 1.7 6.1 0.01 0.01 0.01 55 1010.8
20220628215403 76 192 1.7 5.2 0.01 0.01 0.01 54 1010.8
20220628214903 77 260 0.9 2.6 0.01 0.01 0.01 52 1011.0
20220628214403 78 268 0.9 2.6 0.01 0.01 0.01 47 1011.2
20220628213902 80 279 1.7 2.6 0.00 0.00 0.00 44 1011.2
20220628213403 82 279 1.7 2.6 0.00 0.00 0.00 38 1011.3
20220628212902 84 233 1.7 6.1 0.00 0.00 0.00 35 1010.9
20220628212402 84 247 2.6 6.1 0.00 0.00 0.00 28 1011.2
20220628211903 85 229 2.6 7.0 0.00 0.00 0.00 29 1011.2
20220628211403 85 133 2.6 7.8 0.00 0.00 0.00 28 1011.2
20220628210902 84 214 2.6 7.8 0.00 0.00 0.00 28 1011.3
20220628210404 83 158 3.5 9.6 0.00 0.00 0.00 31 1011.4
20220628205902 82 103 2.6 9.6 0.00 0.00 0.00 33 1011.5
20220628205402 82 197 2.6 7.0 0.00 0.00 0.00 37 1011.6
20220628204903 80 122 1.7 5.2 0.00 0.00 0.00 39 1011.7
20220628204403 80 165 2.6 5.2 0.00 0.00 0.00 38 1011.7
20220628203902 79 121 2.6 3.5 0.00 0.00 0.00 40 1011.7
20220628203402 79 124 2.6 4.3 0.00 0.00 0.00 38 1011.8
20220628202902 79 124 2.6 4.3 0.00 0.00 0.00 38 1011.8
20220628202402 80 140 1.7 4.3 0.00 0.00 0.00 38 1011.8
20220628201902 80 190 1.7 3.5 0.00 0.00 0.00 36 1011.9
20220628201405 80 196 0.9 3.5 0.00 0.00 0.00 37 1011.9
20220628200906 80 184 0.9 3.5 0.00 0.00 0.00 37 1012.1
20220628200403 80 184 1.7 5.2 0.00 0.00 0.00 36 1012.0
20220628195902 80 269 1.7 5.2 0.00 0.00 0.00 35 1012.0
20220628195403 80 240 1.7 6.1 0.00 0.00 0.00 34 1012.0
20220628194902 79 163 1.7 6.1 0.00 0.00 0.00 37 1012.0
20220628194403 79 218 2.6 6.1 0.00 0.00 0.00 40 1012.1
20220628193902 78 169 2.6 5.2 0.00 0.00 0.00 41 1012.1
20220628193403 79 175 1.7 5.2 0.00 0.00 0.00 41 1012.4
20220628192902 79 199 1.7 5.2 0.00 0.00 0.00 42 1012.2
20220628192403 79 248 1.7 4.3 0.00 0.00 0.00 41 1012.1
20220628191902 79 209 1.7 4.3 0.00 0.00 0.00 40 1012.1
20220628191403 79 176 0.9 3.5 0.00 0.00 0.00 40 1012.2
20220628190901 79 155 0.9 3.5 0.00 0.00 0.00 39 1012.2
20220628190401 80 157 1.7 4.3 0.00 0.00 0.00 38 1012.4
20220628185858 80 200 1.7 4.3 0.00 0.00 0.00 37 1012.2
20220628185358 81 168 1.7 5.2 0.00 0.00 0.00 37 1012.2
20220628184859 81 98 1.7 5.2 0.00 0.00 0.00 37 1012.4
20220628184359 81 191 1.7 5.2 0.00 0.00 0.00 36 1012.1
20220628183858 81 194 1.7 7.0 0.00 0.00 0.00 35 1012.1
20220628183357 81 178 1.7 7.0 0.00 0.00 0.00 35 1012.1
20220628182857 80 223 1.7 3.5 0.00 0.00 0.00 34 1012.2
20220628182356 79 169 1.7 4.3 0.00 0.00 0.00 34 1012.4
20220628181857 79 242 1.7 4.3 0.00 0.00 0.00 32 1012.5
20220628181357 78 70 0.9 2.6 0.00 0.00 0.00 31 1012.2
20220628180854 79 70 1.7 2.6 0.00 0.00 0.00 30 1012.5
20220628180353 80 70 1.7 2.6 0.00 0.00 0.00 30 1012.6
20220628175850 80 51 0.9 3.5 0.00 0.00 0.00 30 1012.6
20220628175350 80 348 1.7 3.5 0.00 0.00 0.00 31 1012.6
20220628174850 79 345 0.9 3.5 0.00 0.00 0.00 30 1012.7
20220628174349 79 355 0.9 2.6 0.00 0.00 0.00 31 1012.7
20220628173843 79 0 1.7 4.3 0.00 0.00 0.00 32 1012.8
20220628173336 79 335 1.7 5.2 0.00 0.00 0.00 33 1012.7
20220628172835 79 62 0.9 5.2 0.00 0.00 0.00 36 1012.7
20220628172333 78 69 1.7 5.2 0.00 0.00 0.00 35 1012.7
20220628171832 77 34 1.7 5.2 0.00 0.00 0.00 36 1012.5
20220628171333 76 5 1.7 4.3 0.00 0.00 0.00 38 1012.4
20220628170834 75 330 2.6 7.8 0.00 0.00 0.00 38 1012.4
20220628170333 75 0 2.6 7.8 0.00 0.00 0.00 40 1012.4
20220628165833 74 49 1.7 3.5 0.00 0.00 0.00 41 1012.7
20220628165333 73 340 0.9 3.5 0.00 0.00 0.00 40 1013.1
20220628164834 73 77 1.7 4.3 0.00 0.00 0.00 41 1012.9
20220628164332 73 32 1.7 4.3 0.00 0.00 0.00 44 1013.0
20220628163830 73 0 2.6 5.2 0.00 0.00 0.00 44 1013.1
20220628163330 72 347 1.7 5.2 0.00 0.00 0.00 44 1013.2
20220628162831 72 346 1.7 3.5 0.00 0.00 0.00 44 1013.0
20220628162330 72 323 1.7 3.5 0.00 0.00 0.00 43 1013.0
20220628161830 73 346 0.9 3.5 0.00 0.00 0.00 43 1013.0
20220628161330 73 61 1.7 2.6 0.00 0.00 0.00 45 1013.0
20220628160830 72 108 1.7 2.6 0.00 0.00 0.00 45 1012.9
20220628160330 71 110 0.9 2.6 0.00 0.00 0.00 44 1012.9
20220628155830 71 99 0.9 2.6 0.00 0.00 0.00 45 1013.1
20220628155330 71 99 1.7 2.6 0.00 0.00 0.00 44 1013.4
20220628154831 71 99 2.6 3.5 0.00 0.00 0.00 45 1013.9
20220628154330 70 99 2.6 5.2 0.00 0.00 0.00 44 1013.9
20220628153831 70 92 2.6 5.2 0.00 0.00 0.00 45 1014.0
20220628153330 71 92 1.7 4.3 0.00 0.00 0.00 45 1013.9
20220628152830 70 104 1.7 4.3 0.00 0.00 0.00 46 1013.9
20220628152331 69 146 1.7 4.3 0.00 0.00 0.00 45 1013.4
20220628151831 69 148 1.7 4.3 0.00 0.00 0.00 46 1013.6
20220628151332 68 163 1.7 4.3 0.00 0.00 0.00 47 1013.8
20220628150835 67 155 2.6 4.3 0.00 0.00 0.00 47 1013.9
20220628150331 66 165 1.7 4.3 0.00 0.00 0.00 50 1014.0
20220628145830 65 142 1.7 4.3 0.00 0.00 0.00 53 1014.0
20220628145330 64 194 2.6 6.1 0.00 0.00 0.00 58 1014.3
20220628144830 63 136 3.5 6.1 0.00 0.00 0.00 59 1014.6
20220628144328 63 119 2.6 6.1 0.00 0.00 0.00 58 1014.8
20220628143821 63 137 1.7 5.2 0.00 0.00 0.00 56 1015.1
20220628143316 63 262 1.7 5.2 0.00 0.00 0.00 58 1015.2
20220628142810 62 223 2.6 5.2 0.00 0.00 0.00 55 1014.9
20220628142306 62 213 2.6 5.2 0.00 0.00 0.00 57 1014.9
20220628141805 62 236 2.6 6.1 0.00 0.00 0.00 56 1014.9
20220628141306 62 202 2.6 6.1 0.00 0.00 0.00 59 1014.6
20220628140804 61 223 1.7 5.2 0.00 0.00 0.00 60 1014.9
20220628140304 61 205 1.7 3.5 0.00 0.00 0.00 60 1014.8
20220628135806 61 198 1.7 3.5 0.00 0.00 0.00 59 1014.9
20220628135305 61 161 1.7 3.5 0.00 0.00 0.00 61 1015.2
20220628134804 60 184 0.9 3.5 0.00 0.00 0.00 62 1015.1
20220628134304 60 205 0.9 3.5 0.00 0.00 0.00 62 1015.0
20220628133804 59 204 1.7 3.5 0.00 0.00 0.00 62 1014.8
20220628133305 59 63 1.7 6.1 0.00 0.00 0.00 64 1014.9
20220628132803 59 302 2.6 6.1 0.00 0.00 0.00 64 1014.8
20220628132302 60 306 1.7 2.6 0.00 0.00 0.00 61 1015.1
20220628131802 60 337 1.7 3.5 0.00 0.00 0.00 61 1015.2
20220628131303 59 342 1.7 3.5 0.00 0.00 0.00 61 1015.2
20220628130802 58 315 0.9 3.5 0.00 0.00 0.00 63 1015.2
20220628130303 58 314 1.7 3.5 0.00 0.00 0.00 64 1015.5
20220628125802 58 27 1.7 4.3 0.00 0.00 0.00 63 1015.4
20220628125302 58 280 1.7 4.3 0.00 0.00 0.00 64 1015.4
20220628124802 58 63 0.9 3.5 0.00 0.00 0.00 66 1015.2
20220628124302 58 47 0.9 2.6 0.00 0.00 0.00 65 1015.5
20220628123802 58 329 0.9 3.5 0.00 0.00 0.00 64 1015.6
20220628123302 58 336 1.7 4.3 0.00 0.00 0.00 64 1015.5
20220628122802 58 351 3.5 6.1 0.00 0.00 0.00 62 1015.4
20220628122302 58 298 2.6 6.1 0.00 0.00 0.00 63 1015.6
20220628121802 59 305 2.6 7.8 0.00 0.00 0.00 61 1016.2
20220628121302 59 199 5.2 10.4 0.00 0.00 0.00 61 1016.9
20220628120802 58 221 5.2 10.4 0.00 0.00 0.00 67 1017.4
20220628120304 56 130 2.6 8.7 0.00 0.00 0.00 69 1016.9
20220628115802 56 234 1.7 5.2 0.00 0.00 0.00 69 1016.7
20220628115302 56 313 1.7 7.0 0.00 0.00 0.00 68 1016.2
20220628114802 56 5 3.5 8.7 0.00 0.00 0.00 69 1016.6
20220628114302 56 98 3.5 8.7 0.00 0.00 0.00 70 1016.5
20220628113802 56 355 1.7 4.3 0.00 0.00 0.00 70 1016.5
20220628113301 56 333 1.7 3.5 0.00 0.00 0.00 69 1016.0
20220628112803 56 296 1.7 3.5 0.00 0.00 0.00 68 1015.4
20220628112302 57 302 1.7 3.5 0.00 0.00 0.00 69 1015.3
20220628111805 57 207 2.6 5.2 0.00 0.00 0.00 70 1015.9
20220628111302 56 126 2.6 5.2 0.00 0.00 0.00 71 1016.4
20220628110802 55 167 0.9 2.6 0.00 0.00 0.00 72 1017.1
20220628110302 55 218 0.9 2.6 0.00 0.00 0.00 70 1016.8
20220628105802 56 210 0.9 3.5 0.00 0.00 0.00 71 1016.4
20220628105302 56 188 0.9 3.5 0.00 0.00 0.00 73 1016.1
20220628104803 56 105 0.9 2.6 0.00 0.00 0.00 73 1016.3
20220628104303 55 63 0.9 1.7 0.00 0.00 0.00 70 1016.3
20220628103802 56 63 0.9 1.7 0.00 0.00 0.00 68 1015.9
20220628103302 56 64 0.9 1.7 0.00 0.00 0.00 68 1015.5
20220628102803 57 64 0.0 1.7 0.00 0.00 0.00 70 1015.4
20220628102302 56 64 0.0 1.7 0.00 0.00 0.00 71 1015.4
20220628101802 56 64 0.0 1.7 0.00 0.00 0.00 71 1015.5
20220628101302 56 64 0.0 1.7 0.00 0.00 0.00 71 1015.7
20220628100802 56 64 0.9 4.3 0.00 0.00 0.00 70 1015.7
20220628100301 56 64 0.9 4.3 0.00 0.00 0.00 70 1015.7
20220628095805 56 279 0.9 1.7 0.00 0.00 0.00 66 1015.4
20220628095305 57 279 0.9 2.6 0.00 0.00 0.00 65 1015.3
20220628094802 57 279 0.9 2.6 0.00 0.00 0.00 67 1015.3
20220628094302 56 281 0.9 2.6 0.00 0.00 0.00 66 1015.5
20220628093802 56 281 0.9 3.5 0.00 0.00 0.00 67 1015.7
20220628093300 56 281 0.9 3.5 0.00 0.00 0.00 67 1015.9
20220628092801 56 244 0.9 2.6 0.00 0.00 0.00 65 1016.0
20220628092300 57 240 0.9 2.6 0.00 0.00 0.00 66 1016.1
20220628091800 57 239 1.7 2.6 0.00 0.00 0.00 66 1016.0
20220628091300 57 240 1.7 3.5 0.00 0.00 0.00 67 1016.1
20220628090802 57 205 0.9 3.5 0.00 0.00 0.00 68 1016.1
20220628090301 57 195 0.9 3.5 0.00 0.00 0.00 68 1016.1
20220628085800 58 194 0.9 3.5 0.00 0.00 0.00 68 1016.2
20220628085258 58 116 0.9 2.6 0.00 0.00 0.00 67 1016.2
20220628084758 58 104 0.9 2.6 0.00 0.00 0.00 68 1015.9
20220628084258 58 22 0.9 2.6 0.00 0.00 0.00 67 1016.0
20220628083758 58 22 0.9 2.6 0.00 0.00 0.00 67 1016.1
20220628083256 58 22 0.9 1.7 0.00 0.00 0.00 67 1016.1
20220628082753 58 22 0.9 2.6 0.00 0.00 0.00 67 1016.0
20220628082253 58 22 0.9 2.6 0.00 0.00 0.00 67 1015.9
20220628081750 58 22 0.9 2.6 0.00 0.00 0.00 66 1016.0
20220628081250 59 22 0.0 1.7 0.00 0.00 0.00 69 1016.1
20220628080750 59 22 0.0 0.9 0.00 0.00 0.00 68 1016.1
20220628080249 59 22 0.0 1.7 0.00 0.00 0.00 67 1016.1
20220628075749 59 22 0.9 1.7 0.00 0.00 0.00 67 1016.1
20220628075247 60 22 0.9 1.7 0.00 0.00 0.00 68 1016.1
20220628074744 60 22 0.9 1.7 0.00 0.00 0.00 67 1016.1
20220628074245 60 22 0.0 0.9 0.00 0.00 0.00 65 1016.1
20220628073744 61 22 0.0 0.9 0.00 0.00 0.00 63 1016.2
20220628073242 61 22 0.0 0.9 0.00 0.00 0.00 64 1016.2
20220628072742 61 22 0.0 0.9 0.00 0.00 0.00 63 1016.2
20220628072236 61 22 0.0 0.9 0.00 0.00 0.00 64 1016.3
20220628071736 61 22 0.0 1.7 0.00 0.00 0.00 64 1016.3
20220628071236 61 22 0.0 1.7 0.00 0.00 0.00 64 1016.3
20220628070734 61 22 0.0 0.9 0.00 0.00 0.00 65 1016.3
20220628070234 62 22 0.0 1.7 0.00 0.00 0.00 65 1016.2
20220628065733 62 22 0.9 1.7 0.00 0.00 0.00 64 1016.2
20220628065234 62 22 0.9 1.7 0.00 0.00 0.00 64 1016.3
20220628064734 62 23 0.0 1.7 0.00 0.00 0.00 64 1016.2
20220628064234 62 13 0.0 0.9 0.00 0.00 0.00 63 1016.2
20220628063734 62 13 0.0 1.7 0.00 0.00 0.00 63 1016.3
20220628063233 62 13 0.0 1.7 0.00 0.00 0.00 65 1016.2
20220628062733 63 13 0.0 0.9 0.00 0.00 0.00 66 1016.2
20220628062233 63 14 0.0 1.7 0.00 0.00 0.00 67 1016.3
20220628061733 63 14 0.0 1.7 0.00 0.00 0.00 67 1016.3
20220628061236 63 14 0.0 0.9 0.00 0.00 0.00 65 1016.3
20220628060735 64 14 0.0 0.9 0.00 0.00 0.00 67 1016.3
20220628060234 64 14 0.0 0.0 0.00 0.00 0.00 66 1016.4
20220628055733 64 14 0.0 0.0 0.00 0.00 0.00 66 1016.2
20220628055230 64 14 0.0 0.0 0.00 0.00 0.00 65 1016.2
20220628054731 65 14 0.0 0.9 0.00 0.00 0.00 65 1016.2
20220628054231 65 14 0.0 0.9 0.00 0.00 0.00 64 1016.2
20220628053731 65 14 0.0 0.0 0.00 0.00 0.00 64 1016.2
20220628053230 65 14 0.0 0.9 0.00 0.00 0.00 63 1016.2
20220628052730 66 14 0.0 0.9 0.00 0.00 0.00 62 1016.2
20220628052230 66 14 0.0 0.0 0.00 0.00 0.00 62 1016.2
20220628051730 66 14 0.0 0.9 0.00 0.00 0.00 61 1016.3
20220628051231 67 14 0.0 0.9 0.00 0.00 0.00 61 1016.3
20220628050730 67 14 0.0 0.9 0.00 0.00 0.00 60 1016.2
20220628050229 67 14 0.0 0.0 0.00 0.00 0.00 60 1016.2
20220628045727 67 14 0.0 0.9 0.00 0.00 0.00 59 1016.2
20220628045227 68 14 0.0 1.7 0.00 0.00 0.00 58 1016.2
20220628044727 68 14 0.0 1.7 0.00 0.00 0.00 60 1016.2
20220628044227 69 14 0.0 0.9 0.00 0.00 0.00 57 1016.2